Time;durP1;ratioP1;P1;durP2;ratioP2;P2;SDS_P1;SDS_P2;PMS_P1;PMS_P2;Temp;Humidity;BMP_temperature;BMP_pressure;BME280_temperature;BME280_humidity;BME280_pressure;Samples;Min_cycle;Max_cycle;Signal;HPM_P1;HPM_P2
2023/11/16 00:00:29;;;;;;;1.10;0.28;;;;;;;8.58;98.09;100982.31;5092172;28;20054;-66
2023/11/16 00:02:55;;;;;;;0.75;0.20;;;;;;;8.57;96.34;100982.41;5094098;28;20157;-67
2023/11/16 00:05:21;;;;;;;0.52;0.20;;;;;;;8.57;97.02;100987.63;5091582;28;20131;-67
2023/11/16 00:07:46;;;;;;;0.90;0.20;;;;;;;8.53;96.97;100981.81;5089863;28;20097;-67
2023/11/16 00:10:16;;;;;;;0.43;0.10;;;;;;;8.54;96.58;100977.47;5091911;28;20465;-67
2023/11/16 00:12:42;;;;;;;0.93;0.20;;;;;;;8.54;96.62;100973.09;5091933;28;20432;-67
2023/11/16 00:15:08;;;;;;;2.83;0.30;;;;;;;8.64;95.78;100973.22;5091975;28;20081;-66
2023/11/16 00:17:36;;;;;;;2.10;0.50;;;;;;;8.61;95.19;100968.25;5092592;28;20036;-67
2023/11/16 00:20:04;;;;;;;0.47;0.10;;;;;;;8.58;95.38;100971.09;5091000;28;20040;-67
2023/11/16 00:22:29;;;;;;;0.30;0.10;;;;;;;8.59;95.05;100970.13;5089888;28;20055;-67
2023/11/16 00:24:55;;;;;;;0.30;0.10;;;;;;;8.59;94.13;100975.34;5090609;28;20028;-67
2023/11/16 00:27:21;;;;;;;1.13;0.25;;;;;;;8.59;94.26;100970.97;5090360;28;20067;-67
2023/11/16 00:29:47;;;;;;;0.47;0.20;;;;;;;8.58;94.46;100973.69;5093694;28;20040;-67
2023/11/16 00:32:13;;;;;;;1.65;0.40;;;;;;;8.58;93.48;100976.28;5091507;28;20493;-66
2023/11/16 00:34:40;;;;;;;0.90;0.20;;;;;;;8.58;94.04;100978.88;5090571;28;20043;-67
2023/11/16 00:37:05;;;;;;;2.83;0.55;;;;;;;8.53;94.77;100981.00;5089556;28;20031;-67
2023/11/16 00:39:32;;;;;;;1.33;0.10;;;;;;;8.46;94.63;100982.44;5095805;28;20107;-67
2023/11/16 00:42:00;;;;;;;2.58;0.30;;;;;;;8.42;95.85;100996.59;5112449;28;20080;-68
2023/11/16 00:44:26;;;;;;;4.35;0.17;;;;;;;8.31;96.84;100990.44;5100438;28;20024;-67
2023/11/16 00:46:53;;;;;;;0.28;0.10;;;;;;;8.35;94.80;100992.81;5107004;27;20148;-67
2023/11/16 00:49:18;;;;;;;0.85;0.10;;;;;;;8.40;94.73;100995.91;5095792;27;20047;-67
2023/11/16 00:51:44;;;;;;;1.33;0.20;;;;;;;8.43;94.23;100995.66;5100688;28;20411;-66
2023/11/16 00:54:12;;;;;;;0.13;0.00;;;;;;;8.54;92.67;100995.63;5098495;28;20032;-67
2023/11/16 00:56:38;;;;;;;1.67;0.10;;;;;;;8.54;92.75;100991.28;5096514;28;20601;-67
2023/11/16 00:59:05;;;;;;;1.30;0.20;;;;;;;8.50;93.16;100991.66;5111119;28;20063;-67
2023/11/16 01:01:32;;;;;;;0.40;0.10;;;;;;;8.48;91.70;101001.34;5092637;28;20475;-66
2023/11/16 01:04:00;;;;;;;1.15;0.10;;;;;;;8.50;93.08;101000.28;5104423;28;20024;-67
2023/11/16 01:06:27;;;;;;;0.30;0.10;;;;;;;8.51;92.13;100990.69;5092557;28;20036;-67
2023/11/16 01:08:52;;;;;;;0.82;0.10;;;;;;;8.42;92.53;100994.84;5088999;28;20031;-66
2023/11/16 01:11:22;;;;;;;1.23;0.20;;;;;;;8.36;93.41;100997.06;5092097;28;20054;-66
2023/11/16 01:13:48;;;;;;;1.10;0.20;;;;;;;8.33;94.23;100995.53;5091160;28;20032;-67
2023/11/16 01:16:14;;;;;;;0.60;0.20;;;;;;;8.28;95.09;100992.44;5092451;28;20066;-66
2023/11/16 01:18:46;;;;;;;5.68;0.30;;;;;;;8.17;96.08;101000.19;5090897;28;20479;-67
2023/11/16 01:21:15;;;;;;;0.57;0.10;;;;;;;8.08;97.24;101001.72;5091350;28;20100;-66
2023/11/16 01:23:41;;;;;;;0.88;0.20;;;;;;;8.03;96.63;101009.03;5086866;28;20140;-66
2023/11/16 01:26:14;;;;;;;0.30;0.10;;;;;;;8.09;96.21;101010.31;5092112;28;20030;-66
2023/11/16 01:28:45;;;;;;;0.30;0.10;;;;;;;8.19;94.36;101006.09;5089989;28;20047;-67
2023/11/16 01:31:12;;;;;;;0.73;0.10;;;;;;;8.26;93.34;101005.53;5095325;28;20027;-67
2023/11/16 01:33:38;;;;;;;0.50;0.10;;;;;;;8.30;93.18;101001.75;5090244;28;20075;-67
2023/11/16 01:36:04;;;;;;;0.40;0.10;;;;;;;8.28;94.12;100998.44;5091665;28;20554;-67
2023/11/16 01:38:30;;;;;;;0.20;0.10;;;;;;;8.21;94.56;101002.44;5086685;28;20047;-67
2023/11/16 01:40:56;;;;;;;1.27;0.10;;;;;;;8.16;94.42;100999.38;5090927;28;20077;-66
2023/11/16 01:43:22;;;;;;;1.05;0.20;;;;;;;8.11;94.35;101001.47;5089185;28;20044;-66
2023/11/16 01:45:48;;;;;;;0.40;0.10;;;;;;;8.10;94.91;100999.84;5089941;28;20046;-67
2023/11/16 01:48:21;;;;;;;0.28;0.10;;;;;;;8.08;95.63;101006.06;5090366;28;20031;-67
2023/11/16 01:50:46;;;;;;;0.47;0.10;;;;;;;8.02;95.84;101006.56;5089415;28;20036;-67
2023/11/16 01:53:13;;;;;;;0.47;0.10;;;;;;;7.90;95.69;101003.13;5088837;28;20043;-66
2023/11/16 01:55:44;;;;;;;0.70;0.13;;;;;;;7.84;96.62;100999.19;5087532;28;20365;-67
2023/11/16 01:58:10;;;;;;;0.80;0.17;;;;;;;7.79;97.08;101005.66;5090371;28;20036;-67
2023/11/16 02:00:41;;;;;;;0.45;0.13;;;;;;;7.75;97.60;101012.84;5088484;28;20089;-67
2023/11/16 02:03:06;;;;;;;0.52;0.20;;;;;;;7.71;98.84;101008.81;5088995;28;20111;-67
2023/11/16 02:05:34;;;;;;;1.73;0.20;;;;;;;7.68;98.24;101000.44;5089247;28;20533;-67
2023/11/16 02:08:10;;;;;;;0.90;0.10;;;;;;;7.63;98.69;100996.41;5089040;28;20039;-67
2023/11/16 02:10:39;;;;;;;1.25;0.20;;;;;;;7.65;98.76;100996.31;5088559;28;20143;-66
2023/11/16 02:13:21;;;;;;;0.82;0.30;;;;;;;7.71;98.67;100993.25;5089887;28;20058;-66
2023/11/16 02:15:47;;;;;;;0.63;0.20;;;;;;;7.73;97.25;100995.75;5089110;28;20040;-67
2023/11/16 02:18:14;;;;;;;1.13;0.20;;;;;;;7.78;96.51;100991.03;5088767;28;20031;-67
2023/11/16 02:20:41;;;;;;;0.68;0.10;;;;;;;7.81;96.27;100988.22;5090060;28;20036;-67
2023/11/16 02:23:06;;;;;;;0.45;0.10;;;;;;;7.75;96.23;100991.28;5088123;28;20063;-67
2023/11/16 02:25:50;;;;;;;0.47;0.10;;;;;;;7.77;96.28;100986.78;5090527;28;20024;-67
2023/11/16 02:28:17;;;;;;;1.30;0.20;;;;;;;7.75;95.99;100993.88;5088939;28;20035;-68
2023/11/16 02:30:43;;;;;;;0.88;0.10;;;;;;;7.69;96.47;100996.91;5094864;28;20081;-67
2023/11/16 02:33:09;;;;;;;0.40;0.20;;;;;;;7.66;96.44;100996.19;5089592;28;20157;-66
2023/11/16 02:35:35;;;;;;;0.30;0.10;;;;;;;7.70;97.10;100988.19;5103350;28;20032;-66
2023/11/16 02:38:03;;;;;;;0.43;0.10;;;;;;;7.66;96.93;100991.00;5090002;28;20570;-67
2023/11/16 02:40:28;;;;;;;1.30;0.10;;;;;;;7.76;95.71;100993.75;5096682;28;20055;-66
2023/11/16 02:42:54;;;;;;;0.93;0.10;;;;;;;7.77;96.82;100997.16;5101705;28;20480;-66
2023/11/16 02:45:22;;;;;;;0.52;0.20;;;;;;;7.67;96.69;100997.03;5105615;28;20028;-67
2023/11/16 02:47:57;;;;;;;0.90;0.20;;;;;;;7.60;97.91;101003.59;5096813;28;20418;-66
2023/11/16 02:50:23;;;;;;;0.45;0.20;;;;;;;7.68;96.61;101000.44;5099197;28;20040;-67
2023/11/16 02:52:51;;;;;;;0.60;0.10;;;;;;;7.79;94.66;101003.06;5089372;28;20420;-67
2023/11/16 02:55:20;;;;;;;1.48;0.10;;;;;;;7.81;94.68;100999.44;5100344;28;20472;-66
2023/11/16 02:57:45;;;;;;;1.40;0.15;;;;;;;7.76;95.05;101004.13;5094853;28;20497;-67
2023/11/16 03:00:12;;;;;;;0.68;0.10;;;;;;;7.71;95.88;101002.81;5100372;28;20032;-66
2023/11/16 03:02:41;;;;;;;0.43;0.10;;;;;;;7.75;94.98;100999.88;5098054;28;20031;-67
2023/11/16 03:05:12;;;;;;;0.30;0.08;;;;;;;7.74;95.46;101003.41;5104717;28;20027;-66
2023/11/16 03:07:38;;;;;;;0.10;0.08;;;;;;;7.73;95.58;100996.56;5092823;28;20561;-67
2023/11/16 03:10:07;;;;;;;0.55;0.10;;;;;;;7.74;95.35;101000.00;5092735;28;20031;-66
2023/11/16 03:12:34;;;;;;;0.65;0.10;;;;;;;7.72;95.50;101014.84;5091538;28;20455;-67
2023/11/16 03:14:59;;;;;;;0.85;0.20;;;;;;;7.70;95.43;101006.34;5093046;28;20032;-66
2023/11/16 03:17:25;;;;;;;0.45;0.10;;;;;;;7.71;94.76;101008.00;5094310;28;20061;-67
2023/11/16 03:19:50;;;;;;;0.88;0.20;;;;;;;7.74;94.58;100997.41;5093052;28;20031;-67
2023/11/16 03:22:16;;;;;;;0.22;0.10;;;;;;;7.75;94.57;100999.06;5093913;28;20063;-66
2023/11/16 03:24:42;;;;;;;0.70;0.20;;;;;;;7.70;94.55;101003.75;5091393;28;20028;-66
2023/11/16 03:27:09;;;;;;;0.50;0.10;;;;;;;7.70;95.50;101007.16;5092667;28;20035;-66
2023/11/16 03:29:36;;;;;;;0.20;0.08;;;;;;;7.70;95.38;101008.94;5093339;28;20036;-67
2023/11/16 03:32:02;;;;;;;1.75;0.10;;;;;;;7.70;94.11;101007.16;5092566;28;20085;-66
2023/11/16 03:34:28;;;;;;;1.05;0.30;;;;;;;7.65;95.08;101007.50;5092094;28;20485;-66
2023/11/16 03:36:53;;;;;;;1.00;0.10;;;;;;;7.66;95.01;101008.34;5093278;28;20032;-66
2023/11/16 03:39:19;;;;;;;0.50;0.10;;;;;;;7.66;94.73;101000.56;5091644;28;20028;-66
2023/11/16 03:41:44;;;;;;;0.55;0.10;;;;;;;7.61;94.62;101008.66;5091062;28;20044;-67
2023/11/16 03:44:10;;;;;;;0.73;0.20;;;;;;;7.62;94.60;101002.53;5090748;28;20409;-67
2023/11/16 03:46:35;;;;;;;0.60;0.17;;;;;;;7.68;93.77;101006.44;5092129;28;20036;-67
2023/11/16 03:49:00;;;;;;;1.27;0.10;;;;;;;7.66;93.95;101000.56;5093328;28;20060;-66
2023/11/16 03:51:29;;;;;;;0.25;0.10;;;;;;;7.60;94.29;101008.78;5093407;28;20036;-67
2023/11/16 03:53:57;;;;;;;0.80;0.20;;;;;;;7.47;95.75;100998.50;5090634;28;20035;-66
2023/11/16 03:56:22;;;;;;;1.08;0.20;;;;;;;7.41;95.83;101003.28;5092286;28;20174;-67
2023/11/16 03:58:48;;;;;;;1.42;0.20;;;;;;;7.41;96.40;101011.91;5091897;28;20194;-67
2023/11/16 04:01:13;;;;;;;0.73;0.17;;;;;;;7.45;94.77;101008.16;5091939;28;20521;-66
2023/11/16 04:03:39;;;;;;;0.98;0.10;;;;;;;7.44;95.09;101011.69;5092037;28;20035;-67
2023/11/16 04:06:06;;;;;;;0.35;0.10;;;;;;;7.43;95.27;101004.00;5091025;28;20121;-67
2023/11/16 04:08:32;;;;;;;0.77;0.10;;;;;;;7.42;95.23;101013.56;5093178;28;20036;-67
2023/11/16 04:10:58;;;;;;;1.05;0.20;;;;;;;7.39;95.01;101006.00;5091664;28;20036;-67
2023/11/16 04:13:23;;;;;;;0.80;0.10;;;;;;;7.39;95.09;101003.41;5102375;28;20028;-66
2023/11/16 04:15:50;;;;;;;0.20;0.10;;;;;;;7.39;95.47;100999.97;5088708;28;20028;-66
2023/11/16 04:18:15;;;;;;;0.60;0.10;;;;;;;7.42;95.24;101012.72;5092894;28;20491;-67
2023/11/16 04:20:41;;;;;;;0.50;0.10;;;;;;;7.41;95.48;101003.28;5091496;28;20032;-66
2023/11/16 04:23:06;;;;;;;0.47;0.15;;;;;;;7.39;95.31;101008.59;5093265;28;20044;-66
2023/11/16 04:25:33;;;;;;;0.47;0.20;;;;;;;7.33;94.77;101007.25;5090502;28;20051;-66
2023/11/16 04:27:59;;;;;;;0.52;0.10;;;;;;;7.30;95.96;101004.06;5091765;28;20081;-67
2023/11/16 04:30:30;;;;;;;0.40;0.10;;;;;;;7.27;95.07;100999.09;5092856;28;20067;-66
2023/11/16 04:32:57;;;;;;;1.17;0.10;;;;;;;7.27;96.07;101015.47;5092139;28;20032;-66
2023/11/16 04:35:23;;;;;;;1.00;0.30;;;;;;;7.30;95.91;101014.44;5099910;28;20031;-67
2023/11/16 04:37:49;;;;;;;0.77;0.17;;;;;;;7.27;95.02;101010.28;5104705;28;20492;-67
2023/11/16 04:40:15;;;;;;;0.60;0.10;;;;;;;7.27;95.35;101025.03;5096259;28;20063;-66
2023/11/16 04:42:44;;;;;;;0.10;0.00;;;;;;;7.25;96.12;101016.53;5092279;28;20039;-66
2023/11/16 04:45:11;;;;;;;0.47;0.10;;;;;;;7.21;95.60;101018.50;5098720;28;20028;-67
2023/11/16 04:47:41;;;;;;;0.32;0.10;;;;;;;7.22;95.92;101016.75;5112207;28;20032;-66
2023/11/16 04:50:07;;;;;;;0.35;0.10;;;;;;;7.26;95.24;101013.00;5104601;28;20080;-67
2023/11/16 04:52:34;;;;;;;1.42;0.10;;;;;;;7.37;94.88;101005.28;5103151;28;20122;-67
2023/11/16 04:55:00;;;;;;;0.30;0.10;;;;;;;7.45;94.55;100996.94;5112986;28;20027;-66
2023/11/16 04:57:25;;;;;;;0.30;0.10;;;;;;;7.47;94.09;100995.06;5112862;28;20027;-66
2023/11/16 04:59:53;;;;;;;0.93;0.10;;;;;;;7.51;93.73;100993.91;5091842;27;20036;-67
2023/11/16 05:02:18;;;;;;;1.33;0.10;;;;;;;7.54;93.66;100998.88;5094587;28;20032;-66
2023/11/16 05:04:44;;;;;;;1.10;0.10;;;;;;;7.54;93.79;100991.94;5092802;28;20534;-66
2023/11/16 05:07:10;;;;;;;1.08;0.10;;;;;;;7.51;93.48;100992.16;5091656;28;20490;-67
2023/11/16 05:09:37;;;;;;;0.40;0.10;;;;;;;7.53;93.64;100982.50;5090820;28;20033;-66
2023/11/16 05:12:02;;;;;;;0.30;0.10;;;;;;;7.52;92.63;100978.25;5089248;28;20035;-66
2023/11/16 05:14:28;;;;;;;0.60;0.10;;;;;;;7.57;92.52;100980.47;5090443;28;20028;-67
2023/11/16 05:16:53;;;;;;;0.63;0.10;;;;;;;7.58;93.31;100979.53;5091183;28;20074;-66
2023/11/16 05:19:19;;;;;;;0.70;0.10;;;;;;;7.56;93.32;100979.66;5089821;28;20039;-67
2023/11/16 05:21:45;;;;;;;3.97;0.10;;;;;;;7.55;94.19;100972.00;5091422;28;20024;-66
2023/11/16 05:24:11;;;;;;;1.70;0.17;;;;;;;7.34;95.93;100984.75;5090472;28;20051;-66
2023/11/16 05:26:39;;;;;;;1.10;0.15;;;;;;;7.16;97.17;100983.47;5090458;28;20035;-66
2023/11/16 05:29:05;;;;;;;0.47;0.10;;;;;;;7.19;95.72;100984.09;5088714;28;20114;-66
2023/11/16 05:31:31;;;;;;;3.20;0.10;;;;;;;7.31;94.72;100988.41;5088464;28;20126;-66
2023/11/16 05:33:57;;;;;;;0.40;0.10;;;;;;;7.36;94.69;100998.44;5089419;28;20070;-66
2023/11/16 05:36:22;;;;;;;0.35;0.08;;;;;;;7.37;94.00;100994.09;5090022;28;20041;-66
2023/11/16 05:38:49;;;;;;;0.30;0.10;;;;;;;7.38;93.70;100996.56;5089969;28;20119;-67
2023/11/16 05:41:15;;;;;;;0.90;0.13;;;;;;;7.32;93.83;100997.00;5092306;28;20056;-66
2023/11/16 05:43:41;;;;;;;1.75;0.10;;;;;;;7.28;94.18;100998.16;5094824;28;20062;-66
2023/11/16 05:46:06;;;;;;;0.60;0.17;;;;;;;7.29;93.52;101008.41;5092407;28;20034;-65
2023/11/16 05:48:32;;;;;;;1.08;0.10;;;;;;;7.31;93.72;101003.13;5089642;28;20402;-66
2023/11/16 05:50:58;;;;;;;0.60;0.10;;;;;;;7.34;93.80;101010.69;5090733;28;20124;-66
2023/11/16 05:53:23;;;;;;;1.15;0.20;;;;;;;7.36;93.73;100992.44;5089953;28;20081;-65
2023/11/16 05:55:49;;;;;;;1.50;0.10;;;;;;;7.33;93.12;101003.84;5089215;28;20028;-66
2023/11/16 05:58:14;;;;;;;0.30;0.10;;;;;;;7.26;92.58;101013.00;5089639;28;20024;-65
2023/11/16 06:00:40;;;;;;;0.30;0.10;;;;;;;7.15;94.26;101015.53;5088796;28;20032;-66
2023/11/16 06:03:06;;;;;;;0.40;0.17;;;;;;;7.09;94.29;101024.56;5088635;28;20060;-65
2023/11/16 06:05:39;;;;;;;0.30;0.08;;;;;;;7.08;95.10;101029.88;5088713;28;20027;-65
2023/11/16 06:08:04;;;;;;;0.45;0.15;;;;;;;7.03;94.80;101022.41;5089768;28;20063;-65
2023/11/16 06:10:30;;;;;;;0.80;0.17;;;;;;;7.04;95.20;101028.44;5091014;28;20075;-65
2023/11/16 06:12:58;;;;;;;0.60;0.10;;;;;;;7.06;94.94;101029.16;5090684;28;20452;-66
2023/11/16 06:15:30;;;;;;;0.30;0.10;;;;;;;7.09;94.45;101028.94;5091108;28;20058;-65
2023/11/16 06:17:58;;;;;;;0.73;0.10;;;;;;;7.12;94.69;101020.91;5091189;28;20027;-65
2023/11/16 06:20:23;;;;;;;1.27;0.20;;;;;;;7.18;94.22;101030.84;5091444;28;20063;-66
2023/11/16 06:22:50;;;;;;;1.85;0.20;;;;;;;7.17;93.96;101024.00;5089238;28;20558;-65
2023/11/16 06:25:16;;;;;;;0.65;0.10;;;;;;;7.23;93.45;101018.41;5091107;28;20028;-65
2023/11/16 06:27:45;;;;;;;0.22;0.10;;;;;;;7.20;93.31;101022.03;5090177;28;20504;-65
2023/11/16 06:30:12;;;;;;;0.40;0.10;;;;;;;7.19;93.56;101025.56;5090793;28;20112;-66
2023/11/16 06:32:38;;;;;;;2.28;0.17;;;;;;;7.20;93.12;101027.22;5090280;28;20032;-65
2023/11/16 06:35:03;;;;;;;1.02;0.20;;;;;;;7.16;92.92;101030.97;5090595;28;20054;-65
2023/11/16 06:37:31;;;;;;;0.60;0.20;;;;;;;7.14;93.00;101037.19;5090490;28;20110;-65
2023/11/16 06:39:57;;;;;;;0.43;0.13;;;;;;;7.07;94.00;101042.00;5090360;28;20042;-65
2023/11/16 06:42:22;;;;;;;0.30;0.13;;;;;;;7.06;94.51;101042.09;5090408;28;20040;-66
2023/11/16 06:44:48;;;;;;;0.77;0.15;;;;;;;7.09;94.02;101053.06;5090557;28;20405;-66
2023/11/16 06:47:17;;;;;;;0.43;0.13;;;;;;;7.05;94.09;101053.41;5090738;28;20028;-66
2023/11/16 06:49:47;;;;;;;0.50;0.10;;;;;;;7.01;94.22;101046.78;5090524;28;20040;-65
2023/11/16 06:52:14;;;;;;;0.57;0.17;;;;;;;7.05;94.13;101056.81;5090712;28;20141;-65
2023/11/16 06:54:41;;;;;;;0.50;0.10;;;;;;;7.10;93.62;101053.88;5090428;28;20036;-66
2023/11/16 06:57:07;;;;;;;0.50;0.10;;;;;;;7.13;94.64;101059.69;5090402;28;20111;-65
2023/11/16 06:59:34;;;;;;;1.17;0.30;;;;;;;7.21;94.33;101046.19;5090302;28;20581;-65
2023/11/16 07:02:00;;;;;;;0.30;0.10;;;;;;;7.26;94.46;101060.47;5090334;28;20054;-65
2023/11/16 07:04:26;;;;;;;0.60;0.20;;;;;;;7.36;93.55;101054.66;5099000;28;20038;-64
2023/11/16 07:06:52;;;;;;;0.30;0.10;;;;;;;7.44;93.50;101070.47;5089713;28;20111;-65
2023/11/16 07:09:19;;;;;;;0.50;0.10;;;;;;;7.49;93.34;101055.44;5090331;28;20032;-64
2023/11/16 07:11:47;;;;;;;1.38;0.13;;;;;;;7.55;92.47;101055.00;5089783;28;20038;-65
2023/11/16 07:14:12;;;;;;;0.50;0.10;;;;;;;7.57;91.89;101064.28;5090580;28;20032;-65
2023/11/16 07:16:38;;;;;;;0.70;0.10;;;;;;;7.61;91.99;101065.72;5089985;28;20100;-65
2023/11/16 07:19:03;;;;;;;0.40;0.10;;;;;;;7.68;92.69;101060.09;5090228;28;20039;-65
2023/11/16 07:21:31;;;;;;;0.60;0.40;;;;;;;7.74;92.41;101055.28;5089696;28;20036;-65
2023/11/16 07:23:57;;;;;;;0.40;0.10;;;;;;;7.78;92.78;101053.31;5090478;28;20059;-64
2023/11/16 07:26:23;;;;;;;0.95;0.20;;;;;;;7.81;91.61;101056.50;5089859;28;20072;-63
2023/11/16 07:28:49;;;;;;;0.50;0.10;;;;;;;7.83;91.80;101064.16;5089891;28;20408;-66
2023/11/16 07:31:19;;;;;;;1.15;0.20;;;;;;;7.86;92.04;101058.75;5090414;28;20020;-65
2023/11/16 07:33:51;;;;;;;0.45;0.10;;;;;;;7.85;91.18;101062.28;5089915;28;20032;-65
2023/11/16 07:36:25;;;;;;;1.83;0.20;;;;;;;7.88;91.68;101051.69;5090199;28;20036;-65
2023/11/16 07:38:52;;;;;;;0.70;0.13;;;;;;;7.92;91.17;101053.94;5089833;28;20121;-65
2023/11/16 07:41:17;;;;;;;0.77;0.10;;;;;;;8.04;91.57;101047.00;5089451;28;20101;-65
2023/11/16 07:43:43;;;;;;;0.50;0.10;;;;;;;8.15;90.96;101048.81;5088764;28;20028;-65
2023/11/16 07:46:09;;;;;;;0.63;0.10;;;;;;;8.20;91.09;101052.72;5089844;28;20395;-65
2023/11/16 07:48:34;;;;;;;0.68;0.20;;;;;;;8.24;90.61;101051.53;5089430;28;20391;-65
2023/11/16 07:51:00;;;;;;;0.47;0.10;;;;;;;8.28;90.12;101054.75;5090554;28;20081;-65
2023/11/16 07:53:27;;;;;;;0.60;0.10;;;;;;;8.28;89.90;101050.38;5094234;28;20060;-65
2023/11/16 07:55:53;;;;;;;1.15;0.10;;;;;;;8.27;89.58;101051.31;5089700;28;20546;-65
2023/11/16 07:58:19;;;;;;;0.55;0.10;;;;;;;8.32;89.19;101057.03;5093412;28;20135;-66
2023/11/16 08:00:55;;;;;;;0.28;0.08;;;;;;;8.39;89.04;101052.19;5092929;28;20111;-66
2023/11/16 08:06:12;;;;;;;0.90;0.10;;;;;;;8.55;89.00;101057.03;5087706;28;20466;-65
2023/11/16 08:08:45;;;;;;;0.20;0.10;;;;;;;8.60;88.19;101065.31;5094561;28;20043;-66
2023/11/16 08:11:14;;;;;;;0.30;0.10;;;;;;;8.71;88.78;101062.72;5093949;28;20057;-65
2023/11/16 08:13:45;;;;;;;3.15;0.30;;;;;;;8.84;88.36;101063.44;5093385;28;20093;-67
2023/11/16 08:16:20;;;;;;;0.45;0.10;;;;;;;8.92;86.79;101050.66;5093775;28;20025;-66
2023/11/16 08:18:48;;;;;;;2.40;0.20;;;;;;;9.02;86.69;101061.16;5093423;28;20039;-66
2023/11/16 08:21:14;;;;;;;0.20;0.10;;;;;;;9.10;87.42;101052.75;5093701;28;20564;-65
2023/11/16 08:23:45;;;;;;;0.73;0.10;;;;;;;9.10;86.72;101048.38;5092218;28;20466;-65
2023/11/16 08:26:12;;;;;;;1.00;0.20;;;;;;;9.06;87.53;101046.13;5090463;28;20024;-66
2023/11/16 08:28:44;;;;;;;0.95;0.10;;;;;;;8.97;87.70;101048.53;5092994;28;20032;-66
2023/11/16 08:31:12;;;;;;;0.52;0.10;;;;;;;8.94;87.00;101045.34;5093619;28;20039;-66
2023/11/16 08:33:41;;;;;;;0.30;0.10;;;;;;;8.97;86.64;101037.31;5093118;28;20143;-65
2023/11/16 08:36:08;;;;;;;0.55;0.10;;;;;;;8.99;87.77;101036.22;5093233;28;20056;-65
2023/11/16 08:38:39;;;;;;;0.30;0.10;;;;;;;9.07;86.93;101042.59;5093185;28;20040;-66
2023/11/16 08:41:05;;;;;;;0.40;0.10;;;;;;;9.15;86.68;101035.84;5093430;28;20490;-66
2023/11/16 08:43:32;;;;;;;0.20;0.10;;;;;;;9.23;85.84;101037.84;5092925;28;20028;-66
2023/11/16 08:45:59;;;;;;;0.93;0.30;;;;;;;9.38;86.04;101025.41;5093200;28;20125;-65
2023/11/16 08:48:31;;;;;;;0.63;0.10;;;;;;;9.54;85.72;101033.59;5093254;28;20032;-65
2023/11/16 08:51:06;;;;;;;0.52;0.10;;;;;;;9.63;86.33;101031.09;5085656;28;20085;-65
2023/11/16 08:53:39;;;;;;;0.30;0.10;;;;;;;9.80;86.08;101028.88;5092749;28;20032;-65
2023/11/16 08:56:07;;;;;;;0.98;0.10;;;;;;;10.01;85.42;101026.28;5093040;28;20031;-66
2023/11/16 08:58:36;;;;;;;0.70;0.10;;;;;;;10.17;83.20;101024.88;5092383;28;20032;-65
2023/11/16 09:01:03;;;;;;;0.28;0.10;;;;;;;10.26;83.37;101011.13;5092571;28;20475;-65
2023/11/16 09:03:32;;;;;;;0.68;0.20;;;;;;;10.29;83.53;101023.91;5091539;28;20051;-66
2023/11/16 09:05:58;;;;;;;0.20;0.10;;;;;;;10.34;82.14;101020.06;5092606;28;20483;-65
2023/11/16 09:08:24;;;;;;;1.65;0.10;;;;;;;10.39;83.83;101017.91;5092453;28;20117;-66
2023/11/16 09:10:50;;;;;;;0.35;0.10;;;;;;;10.38;83.57;101011.88;5092078;28;20114;-66
2023/11/16 09:13:15;;;;;;;0.20;0.10;;;;;;;10.43;82.46;101014.88;5092649;28;20027;-66
2023/11/16 09:15:42;;;;;;;0.10;0.00;;;;;;;10.54;83.47;101007.00;5092167;28;20032;-66
2023/11/16 09:18:09;;;;;;;0.85;0.20;;;;;;;10.65;82.84;101016.50;5092748;28;20522;-66
2023/11/16 09:20:35;;;;;;;1.58;0.20;;;;;;;10.77;82.08;101009.41;5091883;28;20468;-67
2023/11/16 09:23:03;;;;;;;0.57;0.10;;;;;;;10.89;82.21;101008.31;5092224;28;20047;-67
2023/11/16 09:25:30;;;;;;;1.50;0.30;;;;;;;10.92;81.88;100998.47;5091561;28;20036;-67
2023/11/16 09:27:56;;;;;;;1.65;0.13;;;;;;;10.95;82.44;101011.22;5091051;28;20032;-66
2023/11/16 09:30:27;;;;;;;0.25;0.10;;;;;;;10.93;83.66;101002.72;5090052;28;20035;-65
2023/11/16 09:32:54;;;;;;;0.30;0.10;;;;;;;10.92;84.03;101001.06;5092598;28;20399;-66
2023/11/16 09:35:23;;;;;;;0.75;0.10;;;;;;;10.93;80.10;100991.47;5092118;28;20047;-67
2023/11/16 09:37:53;;;;;;;0.40;0.15;;;;;;;10.97;80.96;100996.28;5091939;28;20024;-67
2023/11/16 09:40:21;;;;;;;0.40;0.10;;;;;;;10.97;80.71;100991.06;5092310;28;20028;-66
2023/11/16 09:43:16;;;;;;;0.20;0.10;;;;;;;11.05;79.56;100990.41;5091766;28;20036;-66
2023/11/16 09:45:50;;;;;;;1.08;0.10;;;;;;;11.01;79.48;100999.44;5089946;28;20506;-66
2023/11/16 09:48:20;;;;;;;0.65;0.10;;;;;;;11.03;81.40;100988.88;5091966;28;20035;-67
2023/11/16 09:50:48;;;;;;;0.28;0.10;;;;;;;11.02;81.18;100990.66;5091611;28;20441;-66
2023/11/16 09:53:20;;;;;;;0.77;0.10;;;;;;;11.06;81.04;100991.22;5091934;28;20043;-67
2023/11/16 09:55:50;;;;;;;0.30;0.10;;;;;;;11.08;81.32;100984.09;5091487;28;20036;-66
2023/11/16 09:58:23;;;;;;;3.40;0.10;;;;;;;11.09;83.38;100972.69;5092088;28;20389;-66
2023/11/16 10:00:57;;;;;;;0.60;0.17;;;;;;;11.14;82.29;100967.91;5090234;28;20023;-67
2023/11/16 10:03:31;;;;;;;0.52;0.20;;;;;;;11.17;82.79;100965.03;5090236;28;20043;-67
2023/11/16 10:06:00;;;;;;;0.35;0.10;;;;;;;11.21;82.31;100953.38;5084044;28;20028;-66
2023/11/16 10:08:28;;;;;;;0.80;0.20;;;;;;;11.20;81.42;100941.28;5089645;28;20487;-67
2023/11/16 10:11:05;;;;;;;0.60;0.10;;;;;;;11.20;81.30;100946.50;5083726;28;20081;-67
2023/11/16 10:13:31;;;;;;;0.52;0.13;;;;;;;11.23;82.37;100933.19;5091026;28;20040;-66
2023/11/16 10:16:05;;;;;;;0.65;0.10;;;;;;;11.29;81.43;100940.47;5091181;28;20032;-67
2023/11/16 10:18:31;;;;;;;1.15;0.17;;;;;;;11.46;82.60;100933.72;5090497;28;20032;-67
2023/11/16 10:20:57;;;;;;;0.32;0.10;;;;;;;11.61;80.01;100933.16;5090543;28;20032;-66
2023/11/16 10:23:23;;;;;;;1.13;0.30;;;;;;;11.73;79.76;100930.38;5090751;28;20105;-67
2023/11/16 10:25:50;;;;;;;3.67;0.10;;;;;;;11.82;79.32;100913.88;5090956;28;20468;-66
2023/11/16 10:28:20;;;;;;;1.40;0.10;;;;;;;11.99;80.36;100901.88;5091300;28;20457;-66
2023/11/16 10:30:50;;;;;;;2.13;0.10;;;;;;;12.19;79.60;100893.03;5090910;28;20046;-66
2023/11/16 10:33:16;;;;;;;0.70;0.10;;;;;;;12.35;79.79;100894.97;5091595;28;20032;-67
2023/11/16 10:35:48;;;;;;;0.32;0.10;;;;;;;12.32;80.05;100888.25;5090794;28;20391;-66
2023/11/16 10:38:18;;;;;;;0.35;0.10;;;;;;;12.41;78.31;100887.38;5091302;28;20032;-66
2023/11/16 10:40:49;;;;;;;0.30;0.10;;;;;;;12.41;78.59;100873.50;5090302;28;20107;-66
2023/11/16 10:43:19;;;;;;;2.30;0.10;;;;;;;12.36;79.69;100873.94;5089229;28;20024;-66
2023/11/16 10:45:47;;;;;;;1.15;0.15;;;;;;;12.38;82.14;100865.94;5090300;28;20028;-66
2023/11/16 10:48:13;;;;;;;0.68;0.08;;;;;;;12.40;79.32;100869.25;5092027;28;20020;-65
2023/11/16 10:50:42;;;;;;;2.88;0.10;;;;;;;12.41;79.61;100869.09;5089978;28;20047;-66
2023/11/16 10:53:22;;;;;;;2.33;0.10;;;;;;;12.41;79.27;100870.88;5091194;28;20020;-66
2023/11/16 10:55:49;;;;;;;1.00;0.10;;;;;;;12.36;80.71;100873.09;5090047;28;20038;-66
2023/11/16 10:58:20;;;;;;;2.53;0.30;;;;;;;12.31;82.53;100873.53;5091021;28;20024;-66
2023/11/16 11:00:50;;;;;;;0.35;0.10;;;;;;;12.28;81.78;100877.31;5084157;28;20074;-66
2023/11/16 11:03:17;;;;;;;0.43;0.10;;;;;;;12.27;81.69;100872.22;5091136;28;20039;-65
2023/11/16 11:05:48;;;;;;;0.77;0.20;;;;;;;12.34;82.54;100864.59;5088540;28;20039;-66
2023/11/16 11:08:17;;;;;;;0.60;0.10;;;;;;;12.38;82.26;100856.31;5090122;28;20032;-66
2023/11/16 11:10:47;;;;;;;0.22;0.10;;;;;;;12.39;81.92;100852.75;5089946;28;20028;-66
2023/11/16 11:13:14;;;;;;;0.30;0.10;;;;;;;12.39;81.10;100849.31;5090807;28;20028;-66
2023/11/16 11:15:40;;;;;;;0.47;0.10;;;;;;;12.37;81.37;100843.41;5090344;28;20063;-66
2023/11/16 11:18:06;;;;;;;0.35;0.10;;;;;;;12.33;83.47;100836.81;5090373;28;20028;-66
2023/11/16 11:20:38;;;;;;;0.50;0.10;;;;;;;12.37;81.34;100832.94;5089122;28;20042;-66
2023/11/16 11:23:06;;;;;;;0.30;0.10;;;;;;;12.42;82.96;100825.50;5089356;28;20066;-65
2023/11/16 11:25:32;;;;;;;0.73;0.10;;;;;;;12.34;81.90;100828.00;5090130;28;20040;-66
2023/11/16 11:27:57;;;;;;;0.32;0.20;;;;;;;12.33;82.14;100826.38;5093785;28;20111;-65
2023/11/16 11:30:23;;;;;;;0.60;0.20;;;;;;;12.30;82.03;100825.69;5094689;28;20111;-66
2023/11/16 11:32:56;;;;;;;0.75;0.20;;;;;;;12.26;81.98;100818.31;5093843;28;20507;-66
2023/11/16 11:35:25;;;;;;;1.05;0.20;;;;;;;12.19;80.90;100812.88;5094133;28;20040;-66